Weather at Air Force Base Durban

Public forecast

Using degrees Celsius for public forecast. Weather courtesy of forecast.io.

Closest aviation weather report (METAR) to Air Force Base Durban

Closest report is King Shaka International Airport, 23.1 nm (42.8 km) NNE.

2024/05/28 03:00 (retrieved 59 minutes ago)

FALE 280300Z 03003KT 360V060 CAVOK 12/10 Q1025 NOSIG

Closest aviation forecast (TAF) to Air Force Base Durban

Forecast is more than 6 hours old.

Closest forecast is Maputo Airport, 257.9 nm (477.6 km) NNE.

2024/05/27 18:00 (retrieved 10 hours ago)

TAF FQMA 271600Z 2718/2824 17006KT CAVOK TX26/2813Z TN18/2802Z BECMG 2800/2802 24007KT PROB30 TEMPO 2800/2806 3000 BR SCT005 BECMG 2813/2815 10010KT BECMG 2818/2820 06007KT